First Coast — WCR9075 — position and weather

sailwx.info

Track history (hours):
 
Tides and Currents Weather Stations Pressure Air Temp Water Temp Dewpoint Dewpoint Depression Visibility Wind Speed Wind Dir Waves Ship Positions

First Coast

Owner: DANN MARINE TOWING L C, CHESAPEAKE CITY, MD. More information available from US FCC via Universal Licensing System and Coast Guard Vessel Documentation Center.

Last reported at 2017-Mar-13 13:24 UTC. Time now 2017-Jun-22 14:28 UTC.
Position N 39°33' W 075°39'.
Warning: this ship's position is months out of date.

; draft 4 m.

Type: Tug. MMSI: 367024280.

Date/timePositionNaut miles runAvg speedWind from/ knotsBaromVisibWave heightAir tempDewpointWater temp
2017-Mar-13 13:24N 39°33' W 075°39'5 5.8
2017-Mar-13 12:33N 39°36' W 075°34'2 0.4
2017-Mar-13 07:09N 39°39' W 075°34'2 3.9
2017-Mar-13 06:33N 39°36' W 075°34'3 3.4
2017-Mar-13 05:33N 39°33' W 075°36'48 2.5
2017-Mar-12 10:20N 39°15' W 076°34'46 6.0
2017-Mar-12 02:33N 39°33' W 075°38'4 4.4
2017-Mar-12 01:33N 39°36' W 075°34'  
2017-Mar-06 16:05N 39°54' W 075°09'0 0.0
2017-Mar-06 15:34N 39°54' W 075°09'0 0.0
2017-Mar-06 14:33N 39°54' W 075°09'0 0.0
2017-Mar-06 13:33N 39°54' W 075°09'0 0.0
2017-Mar-06 12:33N 39°54' W 075°09'0 0.0
2017-Mar-06 11:33N 39°54' W 075°09'0 0.0
2017-Mar-06 10:33N 39°54' W 075°09'0 0.0
2017-Mar-06 09:33N 39°54' W 075°09'0 0.0
2017-Mar-06 08:33N 39°54' W 075°09'0 0.0
2017-Mar-06 07:33N 39°54' W 075°09'0 0.0
2017-Mar-06 06:33N 39°54' W 075°09'0 0.0
2017-Mar-06 05:33N 39°54' W 075°09'0 0.0
2017-Mar-06 04:33N 39°54' W 075°09'0 0.0
2017-Mar-06 03:33N 39°54' W 075°09'0 0.0
2017-Mar-06 02:33N 39°54' W 075°09'0 0.0
2017-Mar-06 01:33N 39°54' W 075°09'0 0.0
2017-Mar-06 00:33N 39°54' W 075°09'0 0.0
2017-Mar-05 23:33N 39°54' W 075°09'0 0.0
2017-Mar-05 22:34N 39°54' W 075°09'0 0.0
2017-Mar-05 21:33N 39°54' W 075°09'0 0.0
2017-Mar-05 20:34N 39°54' W 075°09'0 0.0
2017-Mar-05 19:33N 39°54' W 075°09'0 0.0
2017-Mar-05 18:34N 39°54' W 075°09'0 0.0
2017-Mar-05 17:33N 39°54' W 075°09'0 0.0
2017-Mar-05 16:33N 39°54' W 075°09'0 0.0
2017-Mar-05 15:34N 39°54' W 075°09'0 0.0
2017-Mar-05 14:33N 39°54' W 075°09'0 0.0
2017-Mar-05 13:33N 39°54' W 075°09'0 0.0
2017-Mar-05 12:33N 39°54' W 075°09'0 0.0
2017-Mar-05 11:34N 39°54' W 075°09'0 0.0
2017-Mar-05 10:33N 39°54' W 075°09'0 0.0
2017-Mar-05 09:33N 39°54' W 075°09'0 0.0
2017-Mar-05 08:33N 39°54' W 075°09'0 0.0
2017-Mar-05 07:33N 39°54' W 075°09'0 0.0
2017-Mar-05 06:33N 39°54' W 075°09'0 0.0
2017-Mar-05 05:33N 39°54' W 075°09'0 0.0
2017-Mar-05 04:33N 39°54' W 075°09'0 0.0
2017-Mar-05 03:33N 39°54' W 075°09'0 0.0
2017-Mar-05 02:33N 39°54' W 075°09'0 0.0
2017-Mar-05 01:33N 39°54' W 075°09'0 0.0
2017-Mar-05 00:33N 39°54' W 075°09'0 0.0
2017-Mar-04 23:33N 39°54' W 075°09'0 0.0
2017-Mar-04 22:33N 39°54' W 075°09'0 0.0
2017-Mar-04 21:33N 39°54' W 075°09'0 0.0
2017-Mar-04 20:33N 39°54' W 075°09'0 0.0
2017-Mar-04 19:33N 39°54' W 075°09'0 0.0
2017-Mar-04 18:33N 39°54' W 075°09'0 0.0
2017-Mar-04 17:33N 39°54' W 075°09'0 0.0
2017-Mar-04 16:31N 39°54' W 075°09'0 0.0
2017-Mar-04 15:33N 39°54' W 075°09'0 0.0
2017-Mar-04 14:33N 39°54' W 075°09'0 0.0
2017-Mar-04 13:33N 39°54' W 075°09'0 0.0
2017-Mar-04 12:33N 39°54' W 075°09'0 0.0
2017-Mar-04 11:33N 39°54' W 075°09'0 0.0
2017-Mar-04 10:33N 39°54' W 075°09'0 0.0
2017-Mar-04 09:33N 39°54' W 075°09'0 0.0
2017-Mar-04 08:33N 39°54' W 075°09'0 0.0
2017-Mar-04 07:33N 39°54' W 075°09'0 0.0
2017-Mar-04 06:33N 39°54' W 075°09'0 0.4
2017-Mar-04 05:33N 39°54' W 075°08'0 0.4
2017-Mar-04 04:33N 39°54' W 075°09'0 0.0
2017-Mar-04 03:33N 39°54' W 075°09'0 0.0
2017-Mar-04 02:33N 39°54' W 075°09'0 0.0
2017-Mar-04 01:33N 39°54' W 075°09'0 0.0
2017-Mar-04 00:33N 39°54' W 075°09'0 0.0
2017-Mar-03 23:33N 39°54' W 075°09'5 2.4
2017-Mar-03 21:33N 39°51' W 075°14'8 7.8
2017-Mar-03 20:29N 39°49' W 075°24'0 0.5
2017-Mar-03 19:33N 39°49' W 075°24'4 3.9
2017-Mar-03 18:33N 39°51' W 075°20'7 5.6
2017-Mar-03 17:23N 39°53' W 075°11'3 3.0
2017-Mar-03 16:31N 39°54' W 075°08'4 4.6
2017-Mar-03 15:33N 39°52' W 075°13'9 8.0
2017-Mar-03 14:28N 39°49' W 075°24'4 4.4
2017-Mar-03 13:33N 39°51' W 075°19'  
Track history (hours):
 
Tides and Currents Weather Stations Pressure Air Temp Water Temp Dewpoint Dewpoint Depression Visibility Wind Speed Wind Dir Waves Ship Positions

First Coast

Owner: DANN MARINE TOWING L C, CHESAPEAKE CITY, MD. More information available from US FCC via Universal Licensing System and Coast Guard Vessel Documentation Center.

Last reported at 2017-Mar-13 13:24 UTC. Time now 2017-Jun-22 14:28 UTC.
Position N 39°33' W 075°39'.
Warning: this ship's position is months out of date.

; draft 4 m.

Type: Tug. MMSI: 367024280.

Date/timePositionNaut miles runAvg speedWind from/ knotsBaromVisibWave heightAir tempDewpointWater temp
2017-Mar-13 13:24N 39°33' W 075°39'5 5.8
2017-Mar-13 12:33N 39°36' W 075°34'2 0.4
2017-Mar-13 07:09N 39°39' W 075°34'2 3.9
2017-Mar-13 06:33N 39°36' W 075°34'3 3.4
2017-Mar-13 05:33N 39°33' W 075°36'48 2.5
2017-Mar-12 10:20N 39°15' W 076°34'46 6.0
2017-Mar-12 02:33N 39°33' W 075°38'4 4.4
2017-Mar-12 01:33N 39°36' W 075°34'  
2017-Mar-06 16:05N 39°54' W 075°09'0 0.0
2017-Mar-06 15:34N 39°54' W 075°09'0 0.0
2017-Mar-06 14:33N 39°54' W 075°09'0 0.0
2017-Mar-06 13:33N 39°54' W 075°09'0 0.0
2017-Mar-06 12:33N 39°54' W 075°09'0 0.0
2017-Mar-06 11:33N 39°54' W 075°09'0 0.0
2017-Mar-06 10:33N 39°54' W 075°09'0 0.0
2017-Mar-06 09:33N 39°54' W 075°09'0 0.0
2017-Mar-06 08:33N 39°54' W 075°09'0 0.0
2017-Mar-06 07:33N 39°54' W 075°09'0 0.0
2017-Mar-06 06:33N 39°54' W 075°09'0 0.0
2017-Mar-06 05:33N 39°54' W 075°09'0 0.0
2017-Mar-06 04:33N 39°54' W 075°09'0 0.0
2017-Mar-06 03:33N 39°54' W 075°09'0 0.0
2017-Mar-06 02:33N 39°54' W 075°09'0 0.0
2017-Mar-06 01:33N 39°54' W 075°09'0 0.0
2017-Mar-06 00:33N 39°54' W 075°09'0 0.0
2017-Mar-05 23:33N 39°54' W 075°09'0 0.0
2017-Mar-05 22:34N 39°54' W 075°09'0 0.0
2017-Mar-05 21:33N 39°54' W 075°09'0 0.0
2017-Mar-05 20:34N 39°54' W 075°09'0 0.0
2017-Mar-05 19:33N 39°54' W 075°09'0 0.0
2017-Mar-05 18:34N 39°54' W 075°09'0 0.0
2017-Mar-05 17:33N 39°54' W 075°09'0 0.0
2017-Mar-05 16:33N 39°54' W 075°09'0 0.0
2017-Mar-05 15:34N 39°54' W 075°09'0 0.0
2017-Mar-05 14:33N 39°54' W 075°09'0 0.0
2017-Mar-05 13:33N 39°54' W 075°09'0 0.0
2017-Mar-05 12:33N 39°54' W 075°09'0 0.0
2017-Mar-05 11:34N 39°54' W 075°09'0 0.0
2017-Mar-05 10:33N 39°54' W 075°09'0 0.0
2017-Mar-05 09:33N 39°54' W 075°09'0 0.0
2017-Mar-05 08:33N 39°54' W 075°09'0 0.0
2017-Mar-05 07:33N 39°54' W 075°09'0 0.0
2017-Mar-05 06:33N 39°54' W 075°09'0 0.0
2017-Mar-05 05:33N 39°54' W 075°09'0 0.0
2017-Mar-05 04:33N 39°54' W 075°09'0 0.0
2017-Mar-05 03:33N 39°54' W 075°09'0 0.0
2017-Mar-05 02:33N 39°54' W 075°09'0 0.0
2017-Mar-05 01:33N 39°54' W 075°09'0 0.0
2017-Mar-05 00:33N 39°54' W 075°09'0 0.0
2017-Mar-04 23:33N 39°54' W 075°09'0 0.0
2017-Mar-04 22:33N 39°54' W 075°09'0 0.0
2017-Mar-04 21:33N 39°54' W 075°09'0 0.0
2017-Mar-04 20:33N 39°54' W 075°09'0 0.0
2017-Mar-04 19:33N 39°54' W 075°09'0 0.0
2017-Mar-04 18:33N 39°54' W 075°09'0 0.0
2017-Mar-04 17:33N 39°54' W 075°09'0 0.0
2017-Mar-04 16:31N 39°54' W 075°09'0 0.0
2017-Mar-04 15:33N 39°54' W 075°09'0 0.0
2017-Mar-04 14:33N 39°54' W 075°09'0 0.0
2017-Mar-04 13:33N 39°54' W 075°09'0 0.0
2017-Mar-04 12:33N 39°54' W 075°09'0 0.0
2017-Mar-04 11:33N 39°54' W 075°09'0 0.0
2017-Mar-04 10:33N 39°54' W 075°09'0 0.0
2017-Mar-04 09:33N 39°54' W 075°09'0 0.0
2017-Mar-04 08:33N 39°54' W 075°09'0 0.0
2017-Mar-04 07:33N 39°54' W 075°09'0 0.0
2017-Mar-04 06:33N 39°54' W 075°09'0 0.4
2017-Mar-04 05:33N 39°54' W 075°08'0 0.4
2017-Mar-04 04:33N 39°54' W 075°09'0 0.0
2017-Mar-04 03:33N 39°54' W 075°09'0 0.0
2017-Mar-04 02:33N 39°54' W 075°09'0 0.0
2017-Mar-04 01:33N 39°54' W 075°09'0 0.0
2017-Mar-04 00:33N 39°54' W 075°09'0 0.0
2017-Mar-03 23:33N 39°54' W 075°09'5 2.4
2017-Mar-03 21:33N 39°51' W 075°14'8 7.8
2017-Mar-03 20:29N 39°49' W 075°24'0 0.5
2017-Mar-03 19:33N 39°49' W 075°24'4 3.9
2017-Mar-03 18:33N 39°51' W 075°20'7 5.6
2017-Mar-03 17:23N 39°53' W 075°11'3 3.0
2017-Mar-03 16:31N 39°54' W 075°08'4 4.6
2017-Mar-03 15:33N 39°52' W 075°13'9 8.0
2017-Mar-03 14:28N 39°49' W 075°24'4 4.4
2017-Mar-03 13:33N 39°51' W 075°19'  

Dump ship's entire track history